Time;durP1;ratioP1;P1;durP2;ratioP2;P2;SDS_P1;SDS_P2;PMS_P1;PMS_P2;Temp;Humidity;BMP_temperature;BMP_pressure;BME280_temperature;BME280_humidity;BME280_pressure;Samples;Min_cycle;Max_cycle;Signal;HPM_P1;HPM_P2
2021/08/01 06:42:58;;;;;;;13.43;6.75;;;;;;;35.73;36.46;96248.50;5075684;28;20106;-59
2021/08/01 06:45:24;;;;;;;17.50;7.78;;;;;;;35.82;37.71;96249.00;5075654;28;20107;-58
2021/08/01 06:47:50;;;;;;;13.18;7.13;;;;;;;36.04;37.92;96241.22;5075268;28;20449;-59
2021/08/01 06:50:15;;;;;;;10.43;6.78;;;;;;;36.21;37.51;96237.88;5075485;28;20020;-58
2021/08/01 06:52:41;;;;;;;16.73;6.93;;;;;;;36.42;38.10;96243.88;5075561;28;20040;-59
2021/08/01 06:55:07;;;;;;;14.15;7.50;;;;;;;36.59;37.54;96240.50;5075400;28;20024;-58
2021/08/01 06:57:33;;;;;;;19.02;7.38;;;;;;;36.83;34.75;96233.22;5075398;28;20032;-59
2021/08/01 06:59:58;;;;;;;12.85;7.40;;;;;;;36.99;34.86;96233.59;5075513;28;20037;-59
2021/08/01 07:02:24;;;;;;;16.90;8.00;;;;;;;36.90;37.02;96236.66;5075467;28;20343;-58
2021/08/01 07:04:49;;;;;;;16.05;7.38;;;;;;;36.90;34.74;96225.75;5075212;28;20052;-58
2021/08/01 07:07:15;;;;;;;13.00;7.55;;;;;;;36.98;36.39;96232.75;5075156;28;20024;-58
2021/08/01 07:09:40;;;;;;;17.02;7.82;;;;;;;36.95;32.81;96233.22;5074051;28;20028;-58
2021/08/01 07:12:10;;;;;;;13.38;6.95;;;;;;;36.96;33.06;96228.63;5075284;28;20073;-58
2021/08/01 07:14:35;;;;;;;16.27;7.65;;;;;;;37.01;33.31;96228.72;5075189;28;20052;-59
2021/08/01 07:17:01;;;;;;;12.77;7.00;;;;;;;37.23;33.14;96222.75;5075122;28;20059;-60
2021/08/01 07:19:27;;;;;;;143.75;111.18;;;;;;;37.39;32.66;96232.09;5074976;28;20027;-59
2021/08/01 07:21:53;;;;;;;20.88;9.70;;;;;;;37.49;34.42;96229.59;5074903;28;20482;-59
2021/08/01 07:24:20;;;;;;;16.88;9.52;;;;;;;37.62;35.23;96231.22;5075021;28;20021;-59
2021/08/01 07:26:47;;;;;;;13.23;8.63;;;;;;;37.87;33.96;96232.03;5074842;28;20028;-59
2021/08/01 07:29:13;;;;;;;17.42;9.32;;;;;;;38.19;33.22;96233.50;5056875;28;20081;-59
2021/08/01 07:31:39;;;;;;;17.27;7.50;;;;;;;38.20;32.18;96235.16;5074798;28;20022;-60
2021/08/01 07:34:04;;;;;;;17.17;7.60;;;;;;;38.16;31.62;96238.38;5074797;28;20060;-59
2021/08/01 07:36:30;;;;;;;10.30;7.72;;;;;;;38.35;32.98;96243.66;5074613;28;20036;-60
2021/08/01 07:38:55;;;;;;;17.50;8.27;;;;;;;38.38;32.04;96242.31;5074478;28;20075;-59
2021/08/01 07:41:21;;;;;;;13.35;8.07;;;;;;;38.27;32.75;96244.84;5074316;28;20293;-59
2021/08/01 07:43:47;;;;;;;13.05;8.27;;;;;;;37.93;32.65;96244.72;5074516;28;20398;-59
2021/08/01 07:46:13;;;;;;;15.90;7.47;;;;;;;37.80;33.83;96248.56;5074467;28;20040;-59
2021/08/01 07:48:38;;;;;;;13.18;8.35;;;;;;;37.61;35.26;96239.63;5074455;28;20028;-59
2021/08/01 07:51:04;;;;;;;14.60;7.90;;;;;;;37.58;32.47;96235.50;5074336;28;20029;-59
2021/08/01 07:53:30;;;;;;;17.00;8.10;;;;;;;37.48;30.83;96238.00;5074247;28;20017;-58
2021/08/01 07:55:55;;;;;;;22.00;8.43;;;;;;;37.51;32.12;96240.25;5074499;28;20033;-59
2021/08/01 07:58:21;;;;;;;19.70;8.70;;;;;;;37.61;31.37;96234.19;5074224;28;20073;-59
2021/08/01 08:00:48;;;;;;;17.65;8.40;;;;;;;37.69;30.31;96231.13;5074078;28;20031;-59
2021/08/01 08:03:13;;;;;;;14.05;7.93;;;;;;;37.66;30.37;96232.41;5074221;28;20025;-59
2021/08/01 08:05:39;;;;;;;21.38;7.68;;;;;;;37.57;29.65;96231.13;5074138;28;20604;-59
2021/08/01 08:08:05;;;;;;;18.67;8.07;;;;;;;37.79;30.15;96225.06;5074138;28;20031;-59
2021/08/01 08:10:31;;;;;;;23.15;8.25;;;;;;;37.80;30.36;96221.28;5073977;28;20108;-59
2021/08/01 08:12:57;;;;;;;19.23;7.50;;;;;;;38.03;29.22;96217.63;5073332;28;20383;-59
2021/08/01 08:15:22;;;;;;;19.02;8.15;;;;;;;38.23;29.24;96229.22;5072647;28;20394;-59
2021/08/01 08:17:48;;;;;;;16.02;10.32;;;;;;;38.33;30.87;96228.56;5072713;28;20027;-59
2021/08/01 08:20:14;;;;;;;17.83;7.93;;;;;;;37.82;30.02;96224.56;5072500;28;20093;-59
2021/08/01 08:22:40;;;;;;;18.60;8.93;;;;;;;37.67;30.73;96230.50;5072626;28;20020;-59
2021/08/01 08:25:07;;;;;;;21.15;8.20;;;;;;;37.84;32.42;96232.50;5072535;28;20386;-59
2021/08/01 08:27:32;;;;;;;16.92;7.80;;;;;;;37.93;30.35;96240.06;5072761;28;20033;-59
2021/08/01 08:29:58;;;;;;;19.15;7.97;;;;;;;38.13;28.32;96227.91;5073834;28;20029;-59
2021/08/01 08:32:24;;;;;;;18.95;8.60;;;;;;;38.23;27.55;96235.50;5073656;28;20028;-59
2021/08/01 08:34:50;;;;;;;20.98;8.88;;;;;;;38.18;29.68;96235.41;5073446;28;20021;-59
2021/08/01 08:37:17;;;;;;;18.00;8.80;;;;;;;38.28;29.60;96235.59;5073614;28;20066;-59
2021/08/01 08:39:43;;;;;;;19.67;8.95;;;;;;;38.63;29.16;96231.06;5073651;28;20028;-59
2021/08/01 08:42:08;;;;;;;19.55;9.05;;;;;;;38.85;28.56;96229.50;5073402;28;20440;-60
2021/08/01 08:44:35;;;;;;;25.63;8.98;;;;;;;39.05;29.12;96227.09;5073413;28;20032;-59
2021/08/01 08:47:02;;;;;;;14.25;8.85;;;;;;;39.08;27.64;96233.13;5073432;28;20040;-59
2021/08/01 08:49:29;;;;;;;17.75;7.40;;;;;;;38.73;28.92;96233.13;5072911;28;20025;-59
2021/08/01 08:51:57;;;;;;;16.15;8.00;;;;;;;38.67;27.56;96234.09;5077138;28;20028;-58
2021/08/01 08:54:45;;;;;;;17.23;8.20;;;;;;;38.75;29.92;96238.34;5093015;28;20485;-59
2021/08/01 08:57:33;;;;;;;18.77;8.25;;;;;;;38.60;28.43;96234.25;5093351;28;20504;-59
2021/08/01 09:00:05;;;;;;;18.85;9.40;;;;;;;38.71;29.39;96232.56;5093407;28;20075;-59
2021/08/01 09:02:31;;;;;;;14.27;8.45;;;;;;;38.36;30.88;96228.06;5093264;28;20493;-59
2021/08/01 09:04:59;;;;;;;19.40;8.27;;;;;;;37.62;31.37;96227.69;5093283;28;20047;-58
2021/08/01 09:07:25;;;;;;;19.00;8.55;;;;;;;37.78;30.54;96226.97;5093266;28;20113;-58
2021/08/01 09:09:52;;;;;;;18.60;8.75;;;;;;;37.87;27.93;96224.69;5093256;28;20029;-58
2021/08/01 09:12:19;;;;;;;18.25;9.27;;;;;;;37.96;31.33;96218.84;5092573;28;20424;-59
2021/08/01 09:14:45;;;;;;;22.33;8.75;;;;;;;38.10;31.00;96217.47;5092337;28;20024;-59
2021/08/01 09:17:13;;;;;;;16.08;8.35;;;;;;;38.20;31.04;96224.22;5092603;28;20342;-59
2021/08/01 09:19:45;;;;;;;16.17;7.97;;;;;;;38.42;30.63;96218.91;5093046;28;20031;-59
2021/08/01 09:22:13;;;;;;;17.50;9.98;;;;;;;38.73;31.07;96224.94;5089835;28;20046;-59
2021/08/01 09:24:39;;;;;;;20.10;11.35;;;;;;;38.98;31.53;96218.25;5092396;28;20028;-59
2021/08/01 09:27:05;;;;;;;19.58;8.98;;;;;;;39.04;29.29;96210.94;5091851;28;20493;-59
2021/08/01 09:29:48;;;;;;;20.08;9.43;;;;;;;38.87;30.75;96216.41;5093079;28;20027;-59
2021/08/01 09:32:14;;;;;;;26.25;13.48;;;;;;;38.91;31.24;96217.56;5094287;28;20431;-59
2021/08/01 09:34:45;;;;;;;21.50;10.52;;;;;;;38.93;30.99;96212.69;5097190;28;20024;-58
2021/08/01 09:37:11;;;;;;;17.88;9.55;;;;;;;38.84;31.79;96215.00;5097234;28;20492;-58
2021/08/01 09:39:42;;;;;;;24.98;10.18;;;;;;;38.38;32.06;96215.03;5097122;28;20028;-59
2021/08/01 09:42:09;;;;;;;23.98;10.13;;;;;;;38.31;33.68;96217.88;5096824;28;20058;-59
2021/08/01 09:44:39;;;;;;;22.88;14.68;;;;;;;38.23;32.79;96210.94;5097258;28;20118;-59
2021/08/01 09:47:06;;;;;;;24.15;13.88;;;;;;;38.11;32.38;96207.41;5097002;28;20493;-58
2021/08/01 09:49:33;;;;;;;21.05;11.18;;;;;;;38.05;31.75;96207.28;5096916;28;20020;-58
2021/08/01 09:52:03;;;;;;;20.70;10.50;;;;;;;37.85;33.62;96215.06;5096913;28;20035;-59
2021/08/01 09:54:47;;;;;;;12.98;10.00;;;;;;;37.93;33.58;96212.78;5096857;28;20362;-59
2021/08/01 09:57:21;;;;;;;26.73;10.43;;;;;;;37.99;32.42;96202.81;5096832;28;20059;-59
2021/08/01 09:59:48;;;;;;;21.65;11.18;;;;;;;38.01;32.65;96199.84;5096911;28;20039;-59
2021/08/01 10:02:15;;;;;;;19.58;10.73;;;;;;;37.90;32.06;96207.84;5096797;28;20099;-59
2021/08/01 10:04:42;;;;;;;19.33;10.00;;;;;;;37.58;31.84;96207.38;5096566;28;20024;-58
2021/08/01 10:07:10;;;;;;;45.25;30.95;;;;;;;37.52;34.03;96201.84;5096606;28;20111;-59
2021/08/01 10:09:40;;;;;;;24.77;11.07;;;;;;;37.64;33.09;96201.81;5096636;28;20076;-58
2021/08/01 10:12:07;;;;;;;40.72;26.08;;;;;;;37.87;33.42;96189.22;5096737;28;20027;-58
2021/08/01 10:14:35;;;;;;;28.25;16.98;;;;;;;38.07;33.34;96198.03;5096519;28;20070;-59
2021/08/01 10:17:01;;;;;;;19.92;10.57;;;;;;;38.07;31.76;96195.31;5096565;28;20052;-58
2021/08/01 10:19:28;;;;;;;16.48;9.63;;;;;;;38.00;31.81;96190.00;5096495;28;20044;-58
2021/08/01 10:21:57;;;;;;;112.68;82.03;;;;;;;37.96;32.71;96189.66;5096533;28;20027;-58
2021/08/01 10:24:27;;;;;;;149.80;101.30;;;;;;;37.96;32.11;96189.66;5092301;28;20024;-60
2021/08/01 10:26:56;;;;;;;23.70;9.87;;;;;;;37.93;30.47;96192.88;5095739;28;20036;-59
2021/08/01 10:29:31;;;;;;;17.77;9.77;;;;;;;37.71;32.22;96187.25;5095929;28;20667;-58
2021/08/01 10:32:11;;;;;;;24.08;11.50;;;;;;;37.63;33.09;96167.44;5092882;28;20386;-58
2021/08/01 10:34:36;;;;;;;126.22;89.97;;;;;;;37.84;32.11;96184.25;5075906;28;20036;-58
2021/08/01 10:37:07;;;;;;;23.45;11.45;;;;;;;37.96;32.43;96176.03;5075901;28;20028;-59
2021/08/01 10:39:36;;;;;;;37.40;26.70;;;;;;;38.02;31.89;96185.13;5075764;28;20115;-59
2021/08/01 10:42:07;;;;;;;17.67;9.90;;;;;;;37.95;29.48;96179.00;5078640;28;20048;-58
2021/08/01 10:44:36;;;;;;;17.05;10.13;;;;;;;37.63;30.88;96180.25;5095885;28;20031;-68
2021/08/01 10:47:07;;;;;;;24.48;10.43;;;;;;;37.32;31.33;96174.97;5092606;28;20059;-68
2021/08/01 10:49:39;;;;;;;18.73;10.25;;;;;;;37.11;33.21;96170.94;5095771;28;20032;-68
2021/08/01 10:52:10;;;;;;;28.58;10.60;;;;;;;37.15;32.11;96169.38;5092126;28;20033;-68
2021/08/01 10:54:57;;;;;;;17.70;9.40;;;;;;;37.32;31.60;96163.25;5075489;28;20056;-67
2021/08/01 10:57:23;;;;;;;17.65;9.75;;;;;;;37.35;32.76;96170.94;5075012;28;20040;-67
2021/08/01 10:59:50;;;;;;;18.05;9.23;;;;;;;37.26;28.64;96162.31;5075295;28;20043;-67
2021/08/01 11:02:15;;;;;;;16.17;9.73;;;;;;;37.12;31.45;96164.41;5077239;28;20090;-68
2021/08/01 11:04:44;;;;;;;27.60;10.25;;;;;;;37.05;29.74;96153.66;5095765;28;20474;-67
2021/08/01 11:07:10;;;;;;;24.92;10.25;;;;;;;37.31;30.53;96156.94;5095200;28;20063;-67
2021/08/01 11:09:35;;;;;;;17.83;9.45;;;;;;;37.49;29.87;96155.13;5095644;28;20170;-67
2021/08/01 11:12:19;;;;;;;25.50;9.63;;;;;;;37.38;30.58;96154.91;5077362;28;20541;-67
2021/08/01 11:14:49;;;;;;;18.30;9.63;;;;;;;36.90;29.85;96149.50;5075163;28;20052;-68
2021/08/01 11:17:17;;;;;;;15.85;11.32;;;;;;;36.49;31.04;96138.44;5075102;28;20032;-68
2021/08/01 11:19:43;;;;;;;20.65;9.45;;;;;;;35.96;32.01;96153.66;5058515;28;20040;-67
2021/08/01 11:22:40;;;;;;;18.77;9.52;;;;;;;35.41;32.03;96145.31;5095344;28;20024;-68
2021/08/01 11:25:18;;;;;;;17.55;9.73;;;;;;;35.23;32.72;96135.25;5095427;28;20110;-68
2021/08/01 11:28:50;;;;;;;19.73;10.25;;;;;;;35.22;31.83;96130.88;5095100;28;20542;-68
2021/08/01 11:30:57;;;;;;;30.90;18.92;;;;;;;35.28;33.43;96135.44;5082457;28;20044;-68
2021/08/01 11:33:40;;;;;;;23.85;11.10;;;;;;;35.56;31.43;96133.19;5081477;28;20108;-68
2021/08/01 11:36:18;;;;;;;21.77;11.55;;;;;;;35.88;30.76;96141.19;5074816;28;20074;-67
2021/08/01 11:38:56;;;;;;;21.42;10.65;;;;;;;36.22;30.80;96129.84;5074774;28;20033;-68
2021/08/01 11:41:48;;;;;;;21.10;10.23;;;;;;;36.41;29.96;96136.03;5081179;28;20089;-67
2021/08/01 11:44:21;;;;;;;18.63;9.27;;;;;;;36.48;30.21;96142.19;5074282;28;20113;-68
2021/08/01 11:46:46;;;;;;;18.67;8.48;;;;;;;36.53;26.67;96139.63;5074625;28;20107;-67
2021/08/01 11:49:17;;;;;;;18.55;8.07;;;;;;;36.52;29.17;96139.84;5074555;28;20067;-68
2021/08/01 11:51:44;;;;;;;26.15;8.75;;;;;;;36.61;29.16;96145.78;5086030;28;20123;-67
2021/08/01 11:54:13;;;;;;;16.02;8.55;;;;;;;36.41;27.09;96141.47;5094262;28;20035;-67
2021/08/01 11:56:42;;;;;;;15.68;8.20;;;;;;;36.52;27.38;96134.41;5092316;28;20470;-67
2021/08/01 11:59:11;;;;;;;24.63;7.95;;;;;;;36.71;27.61;96124.28;5092551;28;20482;-68
2021/08/01 12:01:37;;;;;;;19.38;9.20;;;;;;;36.83;30.06;96116.09;5094629;28;20058;-68
2021/08/01 12:04:11;;;;;;;19.38;9.05;;;;;;;36.91;28.68;96128.53;5085724;28;20052;-68
2021/08/01 12:06:38;;;;;;;19.45;9.00;;;;;;;36.96;28.93;96125.91;5074139;28;20370;-68
2021/08/01 12:09:23;;;;;;;18.00;9.23;;;;;;;37.11;27.71;96116.44;5079637;28;20031;-68
2021/08/01 12:11:52;;;;;;;17.13;8.77;;;;;;;37.20;25.16;96114.22;5088313;28;20032;-68
2021/08/01 12:14:18;;;;;;;21.17;9.07;;;;;;;37.33;25.60;96118.56;5092145;28;20031;-68
2021/08/01 12:16:55;;;;;;;16.35;9.15;;;;;;;37.45;26.05;96111.19;5090476;28;20423;-68
2021/08/01 12:19:24;;;;;;;19.67;8.15;;;;;;;37.47;28.41;96113.66;5093223;28;20470;-68
2021/08/01 12:21:57;;;;;;;22.10;8.32;;;;;;;37.42;25.65;96117.97;5092518;28;20101;-68
2021/08/01 12:24:26;;;;;;;20.10;8.80;;;;;;;37.50;24.78;96121.38;5092003;28;20024;-68
2021/08/01 12:26:56;;;;;;;17.33;8.27;;;;;;;37.55;25.45;96103.22;5091950;28;20028;-67
2021/08/01 12:29:31;;;;;;;24.67;9.32;;;;;;;37.51;25.96;96095.75;5093211;28;20032;-67
2021/08/01 12:31:56;;;;;;;21.27;8.77;;;;;;;37.47;26.89;96100.03;5090511;28;20056;-67
2021/08/01 12:34:22;;;;;;;14.88;9.15;;;;;;;37.47;25.91;96097.31;5075567;28;20040;-68
2021/08/01 12:36:49;;;;;;;15.85;9.35;;;;;;;37.48;26.53;96099.81;5093713;28;20023;-67
2021/08/01 12:39:20;;;;;;;18.02;9.10;;;;;;;37.46;26.49;96101.09;5075182;28;20055;-67
2021/08/01 12:41:46;;;;;;;24.13;9.57;;;;;;;37.49;25.59;96106.06;5074174;28;20047;-67
2021/08/01 12:44:17;;;;;;;26.98;9.50;;;;;;;37.52;25.81;96103.69;5091398;28;20028;-67
2021/08/01 12:46:44;;;;;;;11.55;9.00;;;;;;;37.57;26.03;96104.84;5093656;28;20020;-67
2021/08/01 12:49:11;;;;;;;18.48;8.73;;;;;;;37.64;27.51;96108.25;5093572;28;20047;-68
2021/08/01 12:51:42;;;;;;;19.98;8.93;;;;;;;37.49;25.81;96098.72;5080699;28;20443;-67
2021/08/01 12:54:09;;;;;;;15.00;8.30;;;;;;;37.51;25.59;96102.03;5073291;28;20073;-68
2021/08/01 12:56:36;;;;;;;16.50;8.55;;;;;;;37.28;25.74;96105.66;5073330;28;20031;-67
2021/08/01 12:59:11;;;;;;;17.38;8.38;;;;;;;37.12;26.35;96102.59;5073138;28;20028;-67
2021/08/01 13:01:40;;;;;;;25.67;10.05;;;;;;;37.17;25.86;96090.97;5074115;28;20075;-67
2021/08/01 13:04:07;;;;;;;20.80;9.38;;;;;;;36.96;26.21;96092.41;5073466;28;20021;-68
2021/08/01 13:06:33;;;;;;;17.70;8.65;;;;;;;36.98;26.19;96090.25;5086589;28;20502;-67
2021/08/01 13:09:03;;;;;;;16.50;8.18;;;;;;;37.03;26.49;96088.50;5084610;28;20111;-67
2021/08/01 13:11:33;;;;;;;12.98;8.13;;;;;;;36.82;26.86;96089.94;5073031;28;20056;-68
2021/08/01 13:14:04;;;;;;;24.90;8.90;;;;;;;36.90;27.98;96086.03;5072951;28;20036;-67
2021/08/01 13:16:49;;;;;;;19.63;8.82;;;;;;;37.02;27.89;96092.28;5085024;28;20484;-67
2021/08/01 13:19:17;;;;;;;19.75;9.65;;;;;;;37.01;27.60;96085.19;5093239;28;20016;-67
2021/08/01 13:22:04;;;;;;;15.38;8.45;;;;;;;36.91;25.92;96082.22;5093319;28;20107;-69
2021/08/01 13:24:36;;;;;;;18.05;8.60;;;;;;;36.80;26.13;96078.44;5093316;28;20469;-67
2021/08/01 13:27:07;;;;;;;20.90;9.20;;;;;;;36.57;27.15;96087.44;5088602;28;20043;-66
2021/08/01 13:29:33;;;;;;;16.52;8.40;;;;;;;36.40;26.24;96069.91;5092068;28;20109;-67
2021/08/01 13:32:07;;;;;;;20.60;8.50;;;;;;;36.32;26.07;96083.84;5081366;28;20064;-69
2021/08/01 13:34:53;;;;;;;18.98;8.90;;;;;;;36.20;27.02;96091.19;5070650;28;20033;-68
2021/08/01 13:37:24;;;;;;;24.20;8.88;;;;;;;36.10;26.16;96078.94;5086520;28;20039;-67
2021/08/01 13:39:55;;;;;;;20.08;8.88;;;;;;;36.20;27.88;96072.94;5091950;28;20116;-67
2021/08/01 13:42:42;;;;;;;24.25;9.13;;;;;;;36.07;26.58;96075.84;5092024;28;20040;-69
2021/08/01 13:45:10;;;;;;;17.92;8.70;;;;;;;35.87;27.10;96079.69;5092176;28;20028;-64
2021/08/01 13:47:36;;;;;;;31.98;8.93;;;;;;;35.91;27.72;96079.00;5089249;28;20032;-64
2021/08/01 13:50:11;;;;;;;18.88;8.27;;;;;;;35.97;28.49;96076.41;5093045;28;20028;-63
2021/08/01 13:52:37;;;;;;;15.70;8.80;;;;;;;36.20;26.61;96072.94;5092979;28;20020;-69
2021/08/01 13:55:06;;;;;;;18.88;9.30;;;;;;;36.20;28.65;96078.38;5081595;28;20107;-66
2021/08/01 13:57:32;;;;;;;17.27;8.70;;;;;;;36.15;26.61;96075.53;5092616;28;20028;-63
2021/08/01 13:59:58;;;;;;;16.08;8.45;;;;;;;36.15;27.88;96072.81;5093101;28;20024;-66
2021/08/01 14:02:26;;;;;;;20.70;9.80;;;;;;;36.17;26.92;96082.38;5092676;28;20020;-65
2021/08/01 14:04:52;;;;;;;21.08;9.68;;;;;;;36.06;27.42;96079.63;5090916;28;20032;-68
2021/08/01 14:07:19;;;;;;;17.10;9.13;;;;;;;35.94;27.61;96083.16;5073054;28;20027;-65
2021/08/01 14:09:45;;;;;;;22.98;8.85;;;;;;;35.66;27.31;96076.41;5072456;28;20509;-63
2021/08/01 14:12:11;;;;;;;20.45;10.23;;;;;;;35.62;27.41;96072.47;5072545;28;20536;-68
2021/08/01 14:14:39;;;;;;;19.58;8.88;;;;;;;35.58;27.59;96087.59;5077634;28;20036;-65
2021/08/01 14:17:06;;;;;;;23.70;9.70;;;;;;;35.53;27.68;96078.25;5074550;28;20355;-65
2021/08/01 14:19:32;;;;;;;16.92;8.27;;;;;;;35.61;27.77;96066.25;5096086;28;20055;-64
2021/08/01 14:21:58;;;;;;;23.27;8.80;;;;;;;35.67;27.62;96070.72;5096542;28;20426;-68
2021/08/01 14:24:24;;;;;;;19.67;8.48;;;;;;;35.76;27.32;96063.09;5095286;28;20112;-62
2021/08/01 14:26:51;;;;;;;21.00;9.27;;;;;;;35.84;27.41;96061.13;5076060;28;20021;-67
2021/08/01 14:29:21;;;;;;;18.00;9.43;;;;;;;35.92;27.74;96052.63;5076059;28;20021;-66
2021/08/01 14:31:48;;;;;;;17.02;9.00;;;;;;;35.84;29.10;96052.97;5076085;28;20021;-62
2021/08/01 14:34:15;;;;;;;22.52;9.93;;;;;;;35.77;27.68;96056.63;5074745;28;20040;-65
2021/08/01 14:36:41;;;;;;;21.05;9.63;;;;;;;35.71;28.20;96051.25;5076953;28;20033;-64
2021/08/01 14:39:15;;;;;;;21.40;9.48;;;;;;;35.66;28.38;96049.22;5075999;28;20025;-64
2021/08/01 14:41:41;;;;;;;16.02;9.20;;;;;;;35.71;28.29;96048.56;5075901;28;20478;-68
2021/08/01 14:44:07;;;;;;;25.83;9.73;;;;;;;35.79;27.63;96046.31;5083308;28;20020;-64
2021/08/01 14:46:33;;;;;;;16.67;9.18;;;;;;;35.77;28.24;96048.47;5095375;28;20028;-59
2021/08/01 14:49:18;;;;;;;16.85;8.65;;;;;;;35.84;28.46;96044.81;5080746;28;20085;-64
2021/08/01 14:54:40;;;;;;;16.27;9.15;;;;;;;35.94;29.34;96044.25;5075611;28;20394;-61
2021/08/01 14:57:39;;;;;;;15.43;9.45;;;;;;;35.85;28.11;96044.59;5088204;28;20028;-64
2021/08/01 15:00:06;;;;;;;15.32;8.80;;;;;;;35.91;28.67;96051.78;5095782;28;20034;-64
2021/08/01 15:03:02;;;;;;;23.45;9.43;;;;;;;35.90;29.25;96046.59;5095686;28;20580;-61
2021/08/01 15:05:54;;;;;;;19.40;9.38;;;;;;;35.90;26.47;96043.88;5051251;28;20040;-61
2021/08/01 15:09:00;;;;;;;16.02;9.05;;;;;;;35.86;27.35;96046.25;5094185;28;20161;-61
2021/08/01 15:11:28;;;;;;;15.65;8.82;;;;;;;35.81;28.28;96040.66;5095465;28;20036;-62
2021/08/01 15:14:14;;;;;;;24.30;9.80;;;;;;;35.81;27.71;96037.94;5095320;28;20028;-60
2021/08/01 15:16:45;;;;;;;16.80;8.85;;;;;;;35.83;29.21;96046.69;5075855;28;20044;-64
2021/08/01 15:19:18;;;;;;;18.92;9.10;;;;;;;35.69;28.62;96042.53;5075065;28;20032;-61
2021/08/01 15:21:53;;;;;;;16.63;8.80;;;;;;;35.66;27.99;96044.59;5075097;28;20028;-67
2021/08/01 15:24:27;;;;;;;23.70;9.68;;;;;;;35.64;28.58;96035.84;5074996;28;20062;-58
2021/08/01 15:26:53;;;;;;;22.90;9.90;;;;;;;35.70;29.64;96041.47;5075017;28;20043;-64
2021/08/01 15:29:18;;;;;;;16.52;9.35;;;;;;;35.62;29.01;96031.72;5074242;28;20017;-65
2021/08/01 15:31:45;;;;;;;17.30;9.25;;;;;;;35.54;27.59;96033.69;5074768;28;20032;-64
2021/08/01 15:34:11;;;;;;;21.92;10.10;;;;;;;35.54;27.64;96039.13;5074626;28;20032;-64
2021/08/01 15:36:37;;;;;;;27.67;17.48;;;;;;;35.58;28.43;96039.50;5090036;28;20021;-62
2021/08/01 15:39:03;;;;;;;23.50;11.25;;;;;;;35.60;29.28;96036.56;5094979;28;20035;-65
2021/08/01 15:41:29;;;;;;;18.77;9.75;;;;;;;35.48;28.97;96031.88;5094796;28;20044;-59
2021/08/01 15:43:58;;;;;;;19.80;8.57;;;;;;;35.39;27.24;96038.69;5094787;28;20016;-58
2021/08/01 15:46:26;;;;;;;17.38;9.52;;;;;;;35.18;27.73;96040.84;5087079;28;20036;-63
2021/08/01 15:48:52;;;;;;;18.65;9.20;;;;;;;35.06;28.21;96034.50;5074380;28;20028;-63
2021/08/01 15:51:21;;;;;;;15.88;8.82;;;;;;;34.99;28.62;96027.25;5074357;28;20474;-62
2021/08/01 15:53:52;;;;;;;21.33;10.00;;;;;;;34.86;28.70;96030.13;5074357;28;20033;-65
2021/08/01 15:56:33;;;;;;;21.45;10.02;;;;;;;34.75;29.61;96037.13;5077402;28;20115;-67
2021/08/01 15:59:05;;;;;;;29.77;15.70;;;;;;;34.66;29.84;96029.31;5094651;28;20496;-65
2021/08/01 16:02:07;;;;;;;17.98;9.75;;;;;;;34.61;29.47;96031.00;5094591;28;20043;-66
2021/08/01 16:04:35;;;;;;;18.10;9.18;;;;;;;34.60;30.07;96034.75;5094479;28;20028;-64
2021/08/01 16:07:05;;;;;;;20.48;9.23;;;;;;;34.41;28.45;96045.59;5087800;28;20032;-58
2021/08/01 16:09:41;;;;;;;20.45;9.55;;;;;;;34.43;29.60;96045.38;5074089;28;20020;-60
2021/08/01 16:12:08;;;;;;;17.85;9.90;;;;;;;34.38;29.90;96035.19;5093985;28;20031;-61
2021/08/01 16:14:39;;;;;;;23.80;10.02;;;;;;;34.34;30.61;96037.50;5094169;28;20020;-67
2021/08/01 16:17:30;;;;;;;22.58;9.35;;;;;;;34.28;30.25;96033.78;5075223;28;20027;-64
2021/08/01 16:19:57;;;;;;;16.98;9.63;;;;;;;34.19;30.04;96032.41;5093982;28;20054;-66
2021/08/01 16:22:28;;;;;;;16.13;9.27;;;;;;;34.12;31.25;96028.88;5085258;28;20370;-63
2021/08/01 16:24:57;;;;;;;21.27;9.55;;;;;;;34.06;31.52;96032.47;5083207;28;20386;-63
2021/08/01 16:27:24;;;;;;;14.80;8.85;;;;;;;34.03;31.90;96031.06;5085187;28;20085;-64
2021/08/01 16:29:53;;;;;;;21.67;9.50;;;;;;;34.02;32.89;96027.53;5085129;28;20115;-61
2021/08/01 16:32:21;;;;;;;16.60;9.60;;;;;;;33.98;34.97;96030.91;5087956;28;20031;-62
2021/08/01 16:34:48;;;;;;;17.05;10.38;;;;;;;33.86;36.78;96041.63;5090696;28;20039;-59
2021/08/01 16:37:18;;;;;;;21.88;10.00;;;;;;;33.61;38.27;96036.97;5089675;28;20051;-61
2021/08/01 16:39:44;;;;;;;18.45;9.88;;;;;;;33.43;38.85;96034.97;5085796;28;20448;-60
2021/08/01 16:42:31;;;;;;;13.50;9.98;;;;;;;33.20;38.87;96042.56;5087216;28;20088;-67
2021/08/01 16:45:05;;;;;;;18.75;10.55;;;;;;;33.00;39.27;96046.16;5075762;28;20382;-64
2021/08/01 16:47:45;;;;;;;20.98;10.15;;;;;;;32.83;39.91;96043.06;5088713;28;20107;-63
2021/08/01 16:50:21;;;;;;;29.85;10.73;;;;;;;32.67;40.73;96038.13;5092000;28;20098;-62
2021/08/01 16:53:06;;;;;;;17.38;10.85;;;;;;;32.44;40.06;96039.41;5075229;28;20024;-65
2021/08/01 16:56:01;;;;;;;21.15;11.27;;;;;;;32.27;40.25;96040.63;5088351;28;20371;-61
2021/08/01 16:58:35;;;;;;;22.25;10.32;;;;;;;32.06;40.79;96040.84;5075908;28;20462;-66
2021/08/01 17:01:05;;;;;;;15.90;10.35;;;;;;;31.89;41.29;96035.81;5073123;28;20094;-57
2021/08/01 17:03:51;;;;;;;24.38;10.00;;;;;;;31.71;41.68;96041.81;5073223;28;20020;-60
2021/08/01 17:06:52;;;;;;;15.13;10.50;;;;;;;31.44;41.91;96041.75;5073308;28;20048;-65
2021/08/01 17:09:29;;;;;;;16.33;10.75;;;;;;;31.20;42.08;96039.38;5039025;28;20043;-67
2021/08/01 17:12:11;;;;;;;18.20;10.23;;;;;;;31.06;42.47;96049.28;5074021;28;20035;-58
2021/08/01 17:14:39;;;;;;;22.52;11.18;;;;;;;30.88;43.24;96049.84;5078008;28;20031;-62
2021/08/01 17:17:08;;;;;;;16.58;10.20;;;;;;;30.60;43.07;96046.09;5073410;28;20032;-65
2021/08/01 17:19:55;;;;;;;17.95;10.82;;;;;;;30.45;43.62;96048.06;5073067;28;20054;-66
2021/08/01 17:22:25;;;;;;;19.85;11.38;;;;;;;30.31;43.85;96052.53;5040762;28;20046;-62
2021/08/01 17:24:52;;;;;;;14.35;10.88;;;;;;;30.13;43.70;96051.94;5033181;28;20447;-61
2021/08/01 17:27:20;;;;;;;18.10;10.93;;;;;;;30.02;43.77;96042.53;5050899;28;20631;-64
2021/08/01 17:29:46;;;;;;;14.48;10.75;;;;;;;29.87;44.29;96052.56;5050765;28;20025;-64
2021/08/01 17:32:31;;;;;;;16.85;10.82;;;;;;;29.74;44.52;96048.69;5044491;28;20025;-61
2021/08/01 17:35:03;;;;;;;18.60;11.18;;;;;;;29.59;45.07;96059.53;5040869;28;20487;-65
2021/08/01 17:37:29;;;;;;;18.83;10.88;;;;;;;29.48;45.59;96060.84;5040818;28;20051;-64
2021/08/01 17:39:58;;;;;;;17.23;9.95;;;;;;;29.32;45.47;96051.16;5048934;28;20052;-65
2021/08/01 17:42:27;;;;;;;17.42;10.70;;;;;;;29.04;45.99;96059.09;5042273;28;20037;-61
2021/08/01 17:44:57;;;;;;;13.80;10.07;;;;;;;28.83;46.85;96064.16;5036214;28;20415;-62
2021/08/01 17:47:27;;;;;;;17.05;10.85;;;;;;;28.66;47.66;96060.81;5039007;28;20067;-61
2021/08/01 17:49:57;;;;;;;17.52;10.95;;;;;;;28.49;47.79;96060.13;5043146;28;20557;-57
2021/08/01 17:52:26;;;;;;;16.10;11.05;;;;;;;28.41;48.56;96060.25;5050550;28;20426;-66
2021/08/01 17:54:52;;;;;;;17.08;10.73;;;;;;;28.28;48.51;96066.19;5053146;28;20041;-64
2021/08/01 17:57:18;;;;;;;18.23;11.77;;;;;;;28.07;49.49;96079.31;5034559;28;20111;-55
2021/08/01 17:59:44;;;;;;;23.05;11.77;;;;;;;27.95;49.72;96076.22;5055700;28;20032;-63
2021/08/01 18:02:14;;;;;;;22.90;11.30;;;;;;;27.81;49.92;96064.38;5079238;28;20027;-64
2021/08/01 18:04:40;;;;;;;16.38;11.15;;;;;;;27.64;50.93;96079.75;5077741;28;20032;-64
2021/08/01 18:07:41;;;;;;;18.45;11.52;;;;;;;27.59;50.58;96082.13;5095274;28;20021;-58
2021/08/01 18:10:08;;;;;;;21.92;11.10;;;;;;;27.54;49.05;96087.22;5096603;28;20085;-59
2021/08/01 18:12:39;;;;;;;19.77;11.05;;;;;;;27.53;49.78;96091.72;5094346;28;20111;-61
2021/08/01 18:15:09;;;;;;;18.77;11.07;;;;;;;27.54;50.77;96092.56;5083779;28;20032;-65
2021/08/01 18:17:37;;;;;;;19.98;12.23;;;;;;;27.54;50.52;96103.31;5077168;28;20410;-64
2021/08/01 18:20:06;;;;;;;19.45;11.63;;;;;;;27.44;51.09;96107.06;5086032;28;20466;-64
2021/08/01 18:22:37;;;;;;;19.40;10.93;;;;;;;27.38;50.61;96103.22;5083176;28;20119;-66